Time,TemperatureF,DewpointF,PressureIn,WindDirection,WindDirectionDegrees,WindSpeedMPH,WindSpeedGustMPH,Humidity,HourlyPrecipIn,Conditions,Clouds,dailyrainin,SoftwareType,DateUTC
2014-01-07 00:04:00,52.0,45.7,29.83,SSW,210,16.1,16.1,79,0.00,OVC,,0.00,WeatherDisplay:10.37,2014-01-06 23:04:00,
2014-01-07 00:09:00,52.0,45.7,29.83,SSW,210,16.1,16.1,79,0.00,OVC,,0.00,WeatherDisplay:10.37,2014-01-06 23:09:00,
2014-01-07 00:14:00,51.8,45.5,29.83,SSW,210,15.0,15.0,79,0.00,OVC,,0.00,WeatherDisplay:10.37,2014-01-06 23:14:00,
2014-01-07 00:19:00,51.8,45.5,29.83,SSW,210,15.0,15.0,79,0.00,OVC,,0.00,WeatherDisplay:10.37,2014-01-06 23:19:00,
2014-01-07 00:24:00,51.8,45.5,29.83,SSW,210,15.0,15.0,79,0.00,OVC,,0.00,WeatherDisplay:10.37,2014-01-06 23:24:00,
2014-01-07 00:29:00,51.8,45.5,29.83,SSW,210,15.0,15.0,79,0.00,OVC,,0.00,WeatherDisplay:10.37,2014-01-06 23:29:00,
2014-01-07 00:34:00,51.8,45.5,29.83,SSW,210,15.0,15.0,79,0.00,OVC,,0.00,WeatherDisplay:10.37,2014-01-06 23:34:00,
2014-01-07 00:39:00,51.8,45.5,29.83,SSW,210,15.0,15.0,79,0.00,OVC,,0.00,WeatherDisplay:10.37,2014-01-06 23:39:00,
2014-01-07 00:44:00,51.8,45.5,29.83,SSW,210,10.4,10.4,79,0.00,BKN,,0.00,WeatherDisplay:10.37,2014-01-06 23:44:00,
2014-01-07 00:49:00,51.8,45.5,29.83,SSW,210,10.4,10.4,79,0.00,BKN,,0.00,WeatherDisplay:10.37,2014-01-06 23:49:00,
2014-01-07 00:54:00,51.8,45.2,29.85,SSW,210,10.4,10.4,78,0.00,BKN,,0.00,WeatherDisplay:10.37,2014-01-06 23:54:00,
2014-01-07 00:59:00,51.8,45.5,29.85,SSW,210,10.4,10.4,79,0.00,BKN,,0.00,WeatherDisplay:10.37,2014-01-06 23:59:00,
2014-01-07 01:04:00,51.8,45.5,29.85,SSW,210,10.4,10.4,79,0.00,BKN,,0.00,WeatherDisplay:10.37,2014-01-07 00:04:00,
2014-01-07 01:09:00,51.8,45.5,29.85,SSW,210,10.4,10.4,79,0.00,BKN,,0.00,WeatherDisplay:10.37,2014-01-07 00:09:00,
2014-01-07 01:14:00,51.8,45.5,29.85,SSW,200,12.7,12.7,79,0.00,OVC,,0.00,WeatherDisplay:10.37,2014-01-07 00:14:00,
2014-01-07 01:19:00,51.8,45.5,29.85,SSW,200,12.7,12.7,79,0.00,OVC,,0.00,WeatherDisplay:10.37,2014-01-07 00:19:00,
2014-01-07 01:24:00,51.8,45.5,29.85,SSW,200,12.7,12.7,79,0.00,OVC,,0.00,WeatherDisplay:10.37,2014-01-07 00:24:00,
2014-01-07 01:29:00,51.6,45.3,29.85,SSW,200,12.7,12.7,79,0.00,OVC,,0.00,WeatherDisplay:10.37,2014-01-07 00:29:00,
2014-01-07 01:34:00,51.6,45.3,29.85,SSW,200,12.7,12.7,79,0.00,OVC,,0.00,WeatherDisplay:10.37,2014-01-07 00:34:00,
2014-01-07 01:39:00,51.6,45.3,29.85,SSW,200,12.7,12.7,79,0.00,OVC,,0.00,WeatherDisplay:10.37,2014-01-07 00:39:00,
2014-01-07 01:44:00,51.6,45.0,29.85,SSW,200,13.8,13.8,78,0.00,OVC,,0.00,WeatherDisplay:10.37,2014-01-07 00:44:00,
2014-01-07 01:49:00,51.6,45.0,29.85,SSW,200,13.8,13.8,78,0.00,OVC,,0.00,WeatherDisplay:10.37,2014-01-07 00:49:00,
2014-01-07 01:54:00,51.6,45.0,29.85,SSW,200,13.8,13.8,78,0.00,OVC,,0.00,WeatherDisplay:10.37,2014-01-07 00:54:00,
2014-01-07 01:59:00,51.6,44.6,29.85,SSW,200,13.8,13.8,77,0.00,OVC,,0.00,WeatherDisplay:10.37,2014-01-07 00:59:00,
2014-01-07 02:04:00,51.6,44.6,29.85,SSW,200,13.8,13.8,77,0.00,OVC,,0.00,WeatherDisplay:10.37,2014-01-07 01:04:00,
2014-01-07 02:09:00,51.6,44.6,29.85,SSW,200,13.8,13.8,77,0.00,OVC,,0.00,WeatherDisplay:10.37,2014-01-07 01:09:00,
2014-01-07 02:14:00,51.4,44.5,29.85,SSW,210,15.0,15.0,77,0.00,OVC,,0.00,WeatherDisplay:10.37,2014-01-07 01:14:00,
2014-01-07 02:19:00,51.4,44.5,29.85,SSW,210,15.0,15.0,77,0.00,OVC,,0.00,WeatherDisplay:10.37,2014-01-07 01:19:00,
2014-01-07 02:24:00,51.3,44.6,29.85,SSW,210,15.0,15.0,78,0.00,OVC,,0.00,WeatherDisplay:10.37,2014-01-07 01:24:00,
2014-01-07 02:29:00,51.3,44.6,29.85,SSW,210,15.0,15.0,78,0.00,OVC,,0.00,WeatherDisplay:10.37,2014-01-07 01:29:00,
2014-01-07 02:35:00,51.3,44.6,29.85,SSW,210,15.0,15.0,78,0.00,OVC,,0.00,WeatherDisplay:10.37,2014-01-07 01:35:00,
2014-01-07 02:40:00,51.3,44.3,29.85,SSW,210,15.0,15.0,77,0.00,OVC,,0.00,WeatherDisplay:10.37,2014-01-07 01:40:00,
2014-01-07 02:45:00,51.3,44.3,29.85,SSW,210,16.1,16.1,77,0.00,BKN,,0.00,WeatherDisplay:10.37,2014-01-07 01:45:00,
2014-01-07 02:50:00,51.3,44.3,29.85,SSW,210,16.1,16.1,77,0.00,BKN,,0.00,WeatherDisplay:10.37,2014-01-07 01:50:00,
2014-01-07 02:55:00,51.3,44.3,29.85,SSW,210,16.1,16.1,77,0.00,BKN,,0.00,WeatherDisplay:10.37,2014-01-07 01:55:00,
2014-01-07 03:00:00,51.4,44.5,29.85,SSW,210,16.1,16.1,77,0.00,BKN,,0.00,WeatherDisplay:10.37,2014-01-07 02:00:00,
2014-01-07 03:05:00,51.4,44.5,29.85,SSW,210,16.1,16.1,77,0.00,BKN,,0.00,WeatherDisplay:10.37,2014-01-07 02:05:00,
2014-01-07 03:10:00,51.3,44.3,29.85,SSW,210,16.1,16.1,77,0.00,BKN,,0.00,WeatherDisplay:10.37,2014-01-07 02:10:00,
2014-01-07 03:15:00,51.3,44.6,29.85,SSW,210,16.1,16.1,78,0.00,BKN,,0.00,WeatherDisplay:10.37,2014-01-07 02:15:00,
2014-01-07 03:20:00,51.3,44.6,29.85,SSW,210,16.1,16.1,78,0.00,BKN,,0.00,WeatherDisplay:10.37,2014-01-07 02:20:00,
2014-01-07 03:25:00,51.3,44.6,29.85,SSW,210,16.1,16.1,78,0.00,BKN,,0.00,WeatherDisplay:10.37,2014-01-07 02:25:00,
2014-01-07 03:30:00,51.3,44.6,29.85,SSW,210,16.1,16.1,78,0.00,BKN,,0.00,WeatherDisplay:10.37,2014-01-07 02:30:00,
2014-01-07 03:35:00,51.1,44.5,29.85,SSW,210,16.1,16.1,78,0.00,BKN,,0.00,WeatherDisplay:10.37,2014-01-07 02:35:00,
2014-01-07 03:40:00,51.1,44.5,29.85,SSW,210,16.1,16.1,78,0.00,BKN,,0.00,WeatherDisplay:10.37,2014-01-07 02:40:00,
2014-01-07 03:45:00,51.1,44.5,29.85,SSW,200,15.0,15.0,78,0.00,BKN,,0.00,WeatherDisplay:10.37,2014-01-07 02:45:00,
2014-01-07 03:50:00,51.1,44.5,29.88,SSW,200,15.0,15.0,78,0.00,BKN,,0.00,WeatherDisplay:10.37,2014-01-07 02:50:00,
2014-01-07 03:55:00,51.1,44.5,29.88,SSW,200,15.0,15.0,78,0.00,BKN,,0.00,WeatherDisplay:10.37,2014-01-07 02:55:00,
2014-01-07 04:00:00,51.1,44.5,29.88,SSW,200,15.0,15.0,78,0.00,BKN,,0.00,WeatherDisplay:10.37,2014-01-07 03:00:00,
2014-01-07 04:05:00,51.1,44.5,29.88,SSW,200,15.0,15.0,78,0.00,BKN,,0.00,WeatherDisplay:10.37,2014-01-07 03:05:00,
2014-01-07 04:10:00,50.9,44.3,29.88,SSW,200,15.0,15.0,78,0.00,BKN,,0.00,WeatherDisplay:10.37,2014-01-07 03:10:00,
2014-01-07 04:15:00,50.9,44.3,29.88,SSW,210,16.1,16.1,78,0.00,BKN,,0.00,WeatherDisplay:10.37,2014-01-07 03:15:00,
2014-01-07 04:20:00,50.9,44.3,29.88,SSW,210,16.1,16.1,78,0.00,BKN,,0.00,WeatherDisplay:10.37,2014-01-07 03:20:00,
2014-01-07 04:25:00,50.7,44.1,29.88,SSW,210,16.1,16.1,78,0.00,BKN,,0.00,WeatherDisplay:10.37,2014-01-07 03:25:00,
2014-01-07 04:30:00,50.5,44.3,29.88,SSW,210,16.1,16.1,79,0.00,BKN,,0.00,WeatherDisplay:10.37,2014-01-07 03:30:00,
2014-01-07 04:35:00,50.5,44.3,29.88,SSW,210,16.1,16.1,79,0.00,BKN,,0.00,WeatherDisplay:10.37,2014-01-07 03:35:00,
2014-01-07 04:40:00,50.7,44.4,29.88,SSW,210,16.1,16.1,79,0.00,BKN,,0.00,WeatherDisplay:10.37,2014-01-07 03:40:00,
2014-01-07 04:45:00,50.7,44.8,29.88,SSW,210,16.1,16.1,80,0.00,FEW,,0.00,WeatherDisplay:10.37,2014-01-07 03:45:00,
2014-01-07 04:50:00,50.7,44.8,29.88,SSW,210,15.0,15.0,80,0.00,FEW,,0.00,WeatherDisplay:10.37,2014-01-07 03:50:00,
2014-01-07 04:55:00,50.7,44.8,29.88,SSW,210,15.0,15.0,80,0.00,FEW,,0.00,WeatherDisplay:10.37,2014-01-07 03:55:00,
2014-01-07 05:00:00,50.7,44.8,29.88,SSW,210,15.0,15.0,80,0.00,FEW,,0.00,WeatherDisplay:10.37,2014-01-07 04:00:00,
2014-01-07 05:05:00,50.7,44.8,29.88,SSW,210,15.0,15.0,80,0.00,FEW,,0.00,WeatherDisplay:10.37,2014-01-07 04:05:00,
2014-01-07 05:10:00,50.7,44.8,29.88,SSW,210,15.0,15.0,80,0.00,FEW,,0.00,WeatherDisplay:10.37,2014-01-07 04:10:00,
2014-01-07 05:15:00,50.7,44.8,29.88,SSW,210,16.1,16.1,80,0.00,BKN,,0.00,WeatherDisplay:10.37,2014-01-07 04:15:00,
2014-01-07 05:20:00,50.7,44.8,29.88,SSW,210,16.1,16.1,80,0.00,BKN,,0.00,WeatherDisplay:10.37,2014-01-07 04:20:00,
2014-01-07 05:25:00,50.7,44.8,29.88,SSW,210,16.1,16.1,80,0.00,BKN,,0.00,WeatherDisplay:10.37,2014-01-07 04:25:00,
2014-01-07 05:30:00,50.5,44.6,29.88,SSW,210,16.1,16.1,80,0.00,BKN,,0.00,WeatherDisplay:10.37,2014-01-07 04:30:00,
2014-01-07 05:35:00,50.4,44.4,29.88,SSW,210,16.1,16.1,80,0.00,BKN,,0.00,WeatherDisplay:10.37,2014-01-07 04:35:00,
2014-01-07 05:40:00,50.2,44.2,29.88,SSW,210,16.1,16.1,80,0.00,BKN,,0.00,WeatherDisplay:10.37,2014-01-07 04:40:00,
2014-01-07 05:45:00,50.2,44.6,29.88,SSW,210,16.1,16.1,81,0.00,BKN,,0.00,WeatherDisplay:10.37,2014-01-07 04:45:00,
2014-01-07 05:50:00,50.2,44.6,29.88,SSW,210,16.1,16.1,81,0.00,BKN,,0.00,WeatherDisplay:10.37,2014-01-07 04:50:00,
2014-01-07 05:55:00,50.2,44.6,29.88,SSW,210,12.7,12.7,81,0.00,BKN,,0.00,WeatherDisplay:10.37,2014-01-07 04:55:00,
2014-01-07 06:00:00,50.2,44.6,29.88,SSW,210,12.7,12.7,81,0.00,BKN,,0.00,WeatherDisplay:10.37,2014-01-07 05:00:00,
2014-01-07 06:01:00,50.2,44.6,29.88,SSW,210,12.7,12.7,81,0.00,BKN,,0.00,WeatherDisplay:10.37,2014-01-07 05:01:00,
2014-01-07 06:02:00,50.2,44.6,29.88,SSW,210,12.7,12.7,81,0.00,BKN,,0.00,WeatherDisplay:10.37,2014-01-07 05:02:00,
2014-01-07 06:07:00,50.2,44.6,29.88,SSW,210,12.7,12.7,81,0.00,BKN,,0.00,WeatherDisplay:10.37,2014-01-07 05:07:00,
2014-01-07 06:12:00,50.2,44.6,29.88,SSW,210,12.7,17.3,81,0.00,BKN,,0.00,WeatherDisplay:10.37,2014-01-07 05:12:00,
2014-01-07 06:17:00,50.2,44.6,29.88,SSW,210,17.3,17.3,81,0.00,BKN,,0.00,WeatherDisplay:10.37,2014-01-07 05:17:00,
2014-01-07 06:22:00,50.2,44.6,29.88,SSW,210,17.3,17.3,81,0.00,BKN,,0.00,WeatherDisplay:10.37,2014-01-07 05:22:00,
2014-01-07 06:27:00,50.2,44.6,29.88,SSW,210,17.3,17.3,81,0.00,BKN,,0.00,WeatherDisplay:10.37,2014-01-07 05:27:00,
2014-01-07 06:32:00,50.2,44.9,29.88,SSW,210,17.3,17.3,82,0.00,BKN,,0.00,WeatherDisplay:10.37,2014-01-07 05:32:00,
2014-01-07 06:37:00,50.2,44.9,29.88,SSW,210,17.3,17.3,82,0.00,BKN,,0.00,WeatherDisplay:10.37,2014-01-07 05:37:00,
2014-01-07 06:42:00,50.2,44.9,29.88,SSW,200,17.3,17.3,82,0.00,BKN,,0.00,WeatherDisplay:10.37,2014-01-07 05:42:00,
2014-01-07 06:47:00,50.2,44.9,29.88,SSW,200,12.7,12.7,82,0.00,BKN,,0.00,WeatherDisplay:10.37,2014-01-07 05:47:00,
2014-01-07 06:52:00,50.2,44.6,29.88,SSW,200,12.7,12.7,81,0.00,BKN,,0.00,WeatherDisplay:10.37,2014-01-07 05:52:00,
2014-01-07 06:57:00,50.2,44.6,29.88,SSW,200,12.7,12.7,81,0.00,BKN,,0.00,WeatherDisplay:10.37,2014-01-07 05:57:00,
2014-01-07 07:02:00,50.2,44.6,29.88,SSW,200,12.7,12.7,81,0.00,BKN,,0.00,WeatherDisplay:10.37,2014-01-07 06:02:00,
2014-01-07 07:07:00,50.2,44.6,29.88,SSW,200,12.7,12.7,81,0.00,BKN,,0.00,WeatherDisplay:10.37,2014-01-07 06:07:00,
2014-01-07 07:12:00,50.2,44.6,29.88,SSW,200,12.7,12.7,81,0.00,BKN,,0.00,WeatherDisplay:10.37,2014-01-07 06:12:00,
2014-01-07 07:17:00,50.2,44.6,29.88,SSW,200,15.0,15.0,81,0.00,BKN,,0.00,WeatherDisplay:10.37,2014-01-07 06:17:00,
2014-01-07 07:22:00,50.2,44.6,29.88,SSW,200,15.0,15.0,81,0.00,BKN,,0.00,WeatherDisplay:10.37,2014-01-07 06:22:00,
2014-01-07 07:27:00,50.2,44.6,29.88,SSW,200,15.0,15.0,81,0.00,BKN,,0.00,WeatherDisplay:10.37,2014-01-07 06:27:00,
2014-01-07 07:32:00,50.4,44.7,29.88,SSW,200,15.0,15.0,81,0.00,BKN,,0.00,WeatherDisplay:10.37,2014-01-07 06:32:00,
2014-01-07 07:37:00,50.4,44.4,29.88,SSW,200,15.0,15.0,80,0.00,BKN,,0.00,WeatherDisplay:10.37,2014-01-07 06:37:00,
2014-01-07 07:42:00,50.4,44.4,29.88,SSW,200,15.0,15.0,80,0.00,BKN,,0.00,WeatherDisplay:10.37,2014-01-07 06:42:00,
2014-01-07 07:47:00,50.5,44.6,29.88,SSW,200,13.8,13.8,80,0.00,BKN,,0.00,WeatherDisplay:10.37,2014-01-07 06:47:00,
2014-01-07 07:52:00,50.7,44.4,29.88,SSW,200,13.8,13.8,79,0.00,BKN,,0.00,WeatherDisplay:10.37,2014-01-07 06:52:00,
2014-01-07 07:57:00,50.7,44.4,29.88,SSW,200,13.8,13.8,79,0.00,BKN,,0.00,WeatherDisplay:10.37,2014-01-07 06:57:00,
2014-01-07 08:02:00,50.7,44.4,29.88,SSW,200,13.8,13.8,79,0.00,BKN,,0.00,WeatherDisplay:10.37,2014-01-07 07:02:00,
2014-01-07 08:07:00,50.9,44.3,29.88,SSW,200,13.8,13.8,78,0.00,BKN,,0.00,WeatherDisplay:10.37,2014-01-07 07:07:00,
2014-01-07 08:12:00,50.9,43.9,29.88,SSW,200,13.8,15.0,77,0.00,BKN,,0.00,WeatherDisplay:10.37,2014-01-07 07:12:00,
2014-01-07 08:15:00,50.9,43.9,29.88,SSW,200,15.0,15.0,77,0.00,BKN,,0.00,WeatherDisplay:10.37,2014-01-07 07:15:00,
2014-01-07 08:20:00,50.9,43.9,29.88,SSW,200,15.0,15.0,77,0.00,BKN,,0.00,WeatherDisplay:10.37,2014-01-07 07:20:00,
2014-01-07 08:25:00,50.7,43.4,29.88,SSW,200,15.0,15.0,76,0.00,BKN,,0.00,WeatherDisplay:10.37,2014-01-07 07:25:00,
2014-01-07 08:30:00,50.7,43.4,29.88,SSW,200,15.0,15.0,76,0.00,BKN,,0.00,WeatherDisplay:10.37,2014-01-07 07:30:00,
2014-01-07 08:35:00,50.9,43.6,29.88,SSW,200,15.0,15.0,76,0.00,BKN,,0.00,WeatherDisplay:10.37,2014-01-07 07:35:00,
2014-01-07 08:36:00,50.9,43.6,29.88,SSW,200,15.0,15.0,76,0.00,BKN,,0.00,WeatherDisplay:10.37,2014-01-07 07:36:00,
2014-01-07 08:41:00,50.9,43.6,29.88,SSW,200,15.0,15.0,76,0.00,BKN,,0.00,WeatherDisplay:10.37,2014-01-07 07:41:00,
2014-01-07 08:46:00,50.9,43.6,29.88,South,190,15.0,15.0,76,0.00,BKN,,0.00,WeatherDisplay:10.37,2014-01-07 07:46:00,
2014-01-07 08:51:00,51.1,43.4,29.91,South,190,15.0,15.0,75,0.00,BKN,,0.00,WeatherDisplay:10.37,2014-01-07 07:51:00,
2014-01-07 08:56:00,51.1,43.4,29.91,South,190,15.0,15.0,75,0.00,BKN,,0.00,WeatherDisplay:10.37,2014-01-07 07:56:00,
2014-01-07 09:01:00,51.3,43.6,29.91,South,190,15.0,15.0,75,0.00,BKN,,0.00,WeatherDisplay:10.37,2014-01-07 08:01:00,
2014-01-07 09:06:00,51.4,43.4,29.91,South,190,15.0,15.0,74,0.00,BKN,,0.00,WeatherDisplay:10.37,2014-01-07 08:06:00,
2014-01-07 09:11:00,51.6,43.6,29.91,South,190,15.0,15.0,74,0.00,OVC,,0.00,WeatherDisplay:10.37,2014-01-07 08:11:00,
2014-01-07 09:16:00,52.0,43.6,29.91,SSW,200,17.3,17.3,73,0.00,OVC,,0.00,WeatherDisplay:10.37,2014-01-07 08:16:00,
2014-01-07 09:21:00,52.5,43.8,29.91,SSW,200,17.3,17.3,72,0.00,OVC,,0.00,WeatherDisplay:10.37,2014-01-07 08:21:00,
2014-01-07 09:26:00,52.7,43.6,29.91,SSW,200,17.3,17.3,71,0.00,OVC,,0.00,WeatherDisplay:10.37,2014-01-07 08:26:00,
2014-01-07 09:31:00,53.1,43.9,29.91,SSW,200,17.3,17.3,71,0.00,OVC,,0.00,WeatherDisplay:10.37,2014-01-07 08:31:00,
2014-01-07 09:36:00,53.4,43.9,29.91,SSW,200,17.3,17.3,70,0.00,OVC,,0.00,WeatherDisplay:10.37,2014-01-07 08:36:00,
2014-01-07 09:41:00,53.4,43.5,29.91,SSW,200,17.3,17.3,69,0.00,OVC,,0.00,WeatherDisplay:10.37,2014-01-07 08:41:00,
2014-01-07 09:46:00,54.0,43.6,29.91,SSW,200,17.3,17.3,68,0.00,OVC,,0.00,WeatherDisplay:10.37,2014-01-07 08:46:00,
2014-01-07 09:51:00,54.5,44.2,29.88,SSW,200,17.3,17.3,68,0.00,OVC,,0.00,WeatherDisplay:10.37,2014-01-07 08:51:00,
2014-01-07 09:56:00,54.7,43.5,29.88,SSW,200,16.1,16.1,66,0.00,CLR,,0.00,WeatherDisplay:10.37,2014-01-07 08:56:00,
2014-01-07 10:01:00,54.3,43.6,29.88,SSW,200,16.1,16.1,67,0.00,CLR,,0.00,WeatherDisplay:10.37,2014-01-07 09:01:00,
2014-01-07 10:06:00,54.0,43.2,29.91,SSW,200,16.1,16.1,67,0.00,CLR,,0.00,WeatherDisplay:10.37,2014-01-07 09:06:00,
2014-01-07 10:11:00,54.0,43.2,29.91,SSW,200,16.1,16.1,67,0.00,CLR,,0.00,WeatherDisplay:10.37,2014-01-07 09:11:00,
2014-01-07 10:16:00,54.5,43.8,29.91,SSW,200,16.1,16.1,67,0.00,CLR,,0.00,WeatherDisplay:10.37,2014-01-07 09:16:00,
2014-01-07 10:21:00,54.9,43.7,29.91,SSW,200,16.1,16.1,66,0.00,CLR,,0.00,WeatherDisplay:10.37,2014-01-07 09:21:00,
2014-01-07 10:26:00,55.6,44.0,29.91,SSW,200,17.3,17.3,65,0.00,CLR,,0.00,WeatherDisplay:10.37,2014-01-07 09:26:00,
2014-01-07 10:31:00,55.4,43.8,29.91,SSW,200,17.3,17.3,65,0.00,CLR,,0.00,WeatherDisplay:10.37,2014-01-07 09:31:00,
2014-01-07 10:36:00,54.7,43.1,29.91,SSW,200,17.3,17.3,65,0.00,CLR,,0.00,WeatherDisplay:10.37,2014-01-07 09:36:00,
2014-01-07 10:41:00,54.3,43.2,29.91,SSW,200,17.3,17.3,66,0.00,CLR,,0.00,WeatherDisplay:10.37,2014-01-07 09:41:00,
2014-01-07 10:46:00,55.0,43.9,29.91,SSW,210,16.1,16.1,66,0.00,CLR,,0.00,WeatherDisplay:10.37,2014-01-07 09:46:00,
2014-01-07 10:51:00,55.2,43.7,29.91,SSW,210,16.1,16.1,65,0.00,CLR,,0.00,WeatherDisplay:10.37,2014-01-07 09:51:00,
2014-01-07 10:56:00,54.7,43.1,29.91,SSW,210,16.1,16.1,65,0.00,CLR,,0.00,WeatherDisplay:10.37,2014-01-07 09:56:00,
2014-01-07 11:01:00,54.3,42.8,29.91,SSW,210,16.1,16.1,65,0.00,CLR,,0.00,WeatherDisplay:10.37,2014-01-07 10:01:00,
2014-01-07 11:06:00,54.5,43.4,29.91,SSW,210,16.1,16.1,66,0.00,CLR,,0.00,WeatherDisplay:10.37,2014-01-07 10:06:00,
2014-01-07 11:11:00,54.7,43.5,29.91,SSW,210,16.1,17.3,66,0.00,CLR,,0.00,WeatherDisplay:10.37,2014-01-07 10:11:00,
2014-01-07 11:16:00,54.7,43.5,29.91,SSW,210,17.3,17.3,66,0.00,CLR,,0.00,WeatherDisplay:10.37,2014-01-07 10:16:00,
2014-01-07 11:21:00,54.5,43.4,29.91,SSW,210,17.3,17.3,66,0.00,CLR,,0.00,WeatherDisplay:10.37,2014-01-07 10:21:00,
2014-01-07 11:26:00,54.7,43.5,29.91,SSW,210,17.3,17.3,66,0.00,CLR,,0.00,WeatherDisplay:10.37,2014-01-07 10:26:00,
2014-01-07 11:31:00,54.9,43.7,29.91,SSW,210,17.3,17.3,66,0.00,CLR,,0.00,WeatherDisplay:10.37,2014-01-07 10:31:00,
2014-01-07 11:36:00,55.4,43.8,29.91,SSW,210,17.3,17.3,65,0.00,CLR,,0.00,WeatherDisplay:10.37,2014-01-07 10:36:00,
2014-01-07 11:41:00,55.2,43.7,29.91,SSW,210,17.3,17.3,65,0.00,CLR,,0.00,WeatherDisplay:10.37,2014-01-07 10:41:00,
2014-01-07 11:46:00,55.8,43.8,29.91,SSW,210,16.1,16.1,64,0.00,CLR,,0.00,WeatherDisplay:10.37,2014-01-07 10:46:00,
2014-01-07 11:51:00,56.3,43.9,29.91,SSW,210,16.1,16.1,63,0.00,CLR,,0.00,WeatherDisplay:10.37,2014-01-07 10:51:00,
2014-01-07 11:56:00,56.8,44.0,29.91,SSW,210,16.1,16.1,62,0.00,CLR,,0.00,WeatherDisplay:10.37,2014-01-07 10:56:00,
2014-01-07 12:01:00,57.6,43.8,29.91,SSW,210,16.1,16.1,60,0.00,CLR,,0.00,WeatherDisplay:10.37,2014-01-07 11:01:00,
2014-01-07 12:06:00,58.5,44.2,29.91,SSW,210,16.1,16.1,59,0.00,CLR,,0.00,WeatherDisplay:10.37,2014-01-07 11:06:00,
2014-01-07 12:11:00,57.7,43.1,29.91,SSW,210,16.1,16.1,58,0.00,CLR,,0.00,WeatherDisplay:10.37,2014-01-07 11:11:00,
2014-01-07 12:16:00,57.0,42.4,29.91,SSW,210,16.1,16.1,58,0.00,CLR,,0.00,WeatherDisplay:10.37,2014-01-07 11:16:00,
2014-01-07 12:21:00,56.8,42.7,29.91,SSW,210,16.1,16.1,59,0.00,CLR,,0.00,WeatherDisplay:10.37,2014-01-07 11:21:00,
2014-01-07 12:26:00,56.7,42.9,29.91,SSW,210,16.1,16.1,60,0.00,CLR,,0.00,WeatherDisplay:10.37,2014-01-07 11:26:00,
2014-01-07 12:31:00,56.7,42.9,29.91,SSW,210,16.1,16.1,60,0.00,CLR,,0.00,WeatherDisplay:10.37,2014-01-07 11:31:00,
2014-01-07 12:36:00,56.3,42.6,29.91,SSW,210,16.1,16.1,60,0.00,CLR,,0.00,WeatherDisplay:10.37,2014-01-07 11:36:00,
2014-01-07 12:41:00,56.3,43.0,29.91,SSW,210,16.1,16.1,61,0.00,CLR,,0.00,WeatherDisplay:10.37,2014-01-07 11:41:00,
2014-01-07 12:46:00,56.3,43.0,29.91,SSW,210,16.1,16.1,61,0.00,CLR,,0.00,WeatherDisplay:10.37,2014-01-07 11:46:00,
2014-01-07 12:51:00,56.3,43.0,29.91,SSW,210,16.1,16.1,61,0.00,CLR,,0.00,WeatherDisplay:10.37,2014-01-07 11:51:00,
2014-01-07 12:56:00,56.3,43.0,29.91,SSW,210,16.1,16.1,61,0.00,CLR,,0.00,WeatherDisplay:10.37,2014-01-07 11:56:00,
2014-01-07 13:01:00,56.3,43.4,29.91,SSW,210,16.1,16.1,62,0.00,CLR,,0.00,WeatherDisplay:10.37,2014-01-07 12:01:00,
2014-01-07 13:06:00,56.3,43.0,29.91,SSW,210,16.1,16.1,61,0.00,CLR,,0.00,WeatherDisplay:10.37,2014-01-07 12:06:00,
2014-01-07 13:11:00,56.3,43.0,29.91,SSW,210,16.1,16.1,61,0.00,CLR,,0.00,WeatherDisplay:10.37,2014-01-07 12:11:00,
2014-01-07 13:16:00,56.3,43.4,29.91,SSW,210,16.1,16.1,62,0.00,CLR,,0.00,WeatherDisplay:10.37,2014-01-07 12:16:00,
2014-01-07 13:21:00,56.3,43.4,29.91,SSW,210,16.1,16.1,62,0.00,CLR,,0.00,WeatherDisplay:10.37,2014-01-07 12:21:00,
2014-01-07 13:26:00,56.3,43.4,29.91,SSW,210,16.1,16.1,62,0.00,CLR,,0.00,WeatherDisplay:10.37,2014-01-07 12:26:00,
2014-01-07 13:31:00,56.3,43.9,29.91,SSW,210,16.1,16.1,63,0.00,CLR,,0.00,WeatherDisplay:10.37,2014-01-07 12:31:00,
2014-01-07 13:36:00,56.1,44.1,29.91,SSW,210,16.1,16.1,64,0.00,CLR,,0.00,WeatherDisplay:10.37,2014-01-07 12:36:00,
2014-01-07 13:41:00,55.9,43.9,29.91,SSW,210,16.1,16.1,64,0.00,CLR,,0.00,WeatherDisplay:10.37,2014-01-07 12:41:00,
2014-01-07 13:46:00,55.9,44.3,29.91,SSW,210,16.1,16.1,65,0.00,CLR,,0.00,WeatherDisplay:10.37,2014-01-07 12:46:00,
2014-01-07 13:51:00,55.6,44.0,29.91,SSW,210,16.1,16.1,65,0.00,CLR,,0.00,WeatherDisplay:10.37,2014-01-07 12:51:00,
2014-01-07 13:56:00,55.6,44.4,29.91,SSW,210,16.1,16.1,66,0.00,CLR,,0.00,WeatherDisplay:10.37,2014-01-07 12:56:00,
2014-01-07 14:01:00,55.4,44.6,29.91,SSW,210,16.1,16.1,67,0.00,CLR,,0.00,WeatherDisplay:10.37,2014-01-07 13:01:00,
2014-01-07 14:07:00,55.4,44.6,29.91,SSW,210,16.1,16.1,67,0.00,CLR,,0.00,WeatherDisplay:10.37,2014-01-07 13:07:00,
2014-01-07 14:12:00,55.4,44.6,29.91,SSW,200,16.1,16.1,67,0.00,CLR,,0.00,WeatherDisplay:10.37,2014-01-07 13:12:00,
2014-01-07 14:17:00,55.4,44.6,29.91,SSW,200,15.0,15.0,67,0.00,CLR,,0.00,WeatherDisplay:10.37,2014-01-07 13:17:00,
2014-01-07 14:22:00,55.2,44.8,29.88,SSW,200,15.0,15.0,68,0.00,CLR,,0.00,WeatherDisplay:10.37,2014-01-07 13:22:00,
2014-01-07 14:27:00,55.2,44.8,29.88,SSW,200,15.0,15.0,68,0.00,CLR,,0.00,WeatherDisplay:10.37,2014-01-07 13:27:00,
2014-01-07 14:32:00,55.0,44.7,29.88,SSW,200,15.0,15.0,68,0.00,CLR,,0.00,WeatherDisplay:10.37,2014-01-07 13:32:00,
2014-01-07 14:37:00,55.0,45.1,29.88,SSW,200,15.0,15.0,69,0.00,CLR,,0.00,WeatherDisplay:10.37,2014-01-07 13:37:00,
2014-01-07 14:42:00,54.9,44.9,29.88,SSW,200,15.0,15.0,69,0.00,OVC,,0.00,WeatherDisplay:10.37,2014-01-07 13:42:00,
2014-01-07 14:47:00,54.9,44.9,29.88,SSW,200,11.5,11.5,69,0.00,OVC,,0.00,WeatherDisplay:10.37,2014-01-07 13:47:00,
2014-01-07 14:52:00,54.9,44.9,29.91,SSW,200,11.5,11.5,69,0.00,OVC,,0.00,WeatherDisplay:10.37,2014-01-07 13:52:00,
2014-01-07 14:57:00,54.7,45.1,29.91,SSW,200,11.5,11.5,70,0.00,OVC,,0.00,WeatherDisplay:10.37,2014-01-07 13:57:00,
2014-01-07 15:02:00,54.7,45.5,29.91,SSW,200,11.5,11.5,71,0.00,OVC,,0.00,WeatherDisplay:10.37,2014-01-07 14:02:00,
2014-01-07 15:07:00,54.5,45.3,29.91,SSW,200,11.5,11.5,71,0.00,OVC,,0.00,WeatherDisplay:10.37,2014-01-07 14:07:00,
2014-01-07 15:12:00,54.3,45.5,29.91,SSW,200,11.5,11.5,72,0.00,-RA,,0.00,WeatherDisplay:10.37,2014-01-07 14:12:00,
2014-01-07 15:17:00,54.1,45.7,29.91,SSW,200,15.0,15.0,73,0.00,-RA,,0.00,WeatherDisplay:10.37,2014-01-07 14:17:00,
2014-01-07 15:22:00,54.0,45.9,29.91,SSW,200,15.0,15.0,74,0.00,-RA,,0.00,WeatherDisplay:10.37,2014-01-07 14:22:00,
2014-01-07 15:27:00,54.0,45.9,29.91,SSW,200,15.0,15.0,74,0.00,-RA,,0.00,WeatherDisplay:10.37,2014-01-07 14:27:00,
2014-01-07 15:32:00,54.1,46.0,29.91,SSW,200,15.0,15.0,74,0.00,-RA,,0.00,WeatherDisplay:10.37,2014-01-07 14:32:00,
2014-01-07 15:37:00,54.1,46.0,29.88,SSW,200,15.0,15.0,74,0.00,-RA,,0.00,WeatherDisplay:10.37,2014-01-07 14:37:00,
2014-01-07 15:42:00,54.0,46.2,29.88,South,190,15.0,15.0,75,0.00,OVC,,0.00,WeatherDisplay:10.37,2014-01-07 14:42:00,
2014-01-07 15:47:00,54.1,46.4,29.88,South,190,10.4,10.4,75,0.00,OVC,,0.00,WeatherDisplay:10.37,2014-01-07 14:47:00,
2014-01-07 15:52:00,54.1,46.4,29.88,South,190,10.4,10.4,75,0.00,OVC,,0.00,WeatherDisplay:10.37,2014-01-07 14:52:00,
2014-01-07 15:57:00,54.0,45.9,29.88,South,190,10.4,10.4,74,0.00,OVC,,0.00,WeatherDisplay:10.37,2014-01-07 14:57:00,
2014-01-07 16:02:00,54.0,45.9,29.88,South,190,10.4,10.4,74,0.00,OVC,,0.00,WeatherDisplay:10.37,2014-01-07 15:02:00,
2014-01-07 16:07:00,53.8,46.0,29.88,South,190,10.4,10.4,75,0.00,OVC,,0.00,WeatherDisplay:10.37,2014-01-07 15:07:00,
2014-01-07 16:12:00,53.8,46.0,29.88,South,190,10.4,16.1,75,0.00,SCT,,0.00,WeatherDisplay:10.37,2014-01-07 15:12:00,
2014-01-07 16:17:00,53.8,46.0,29.88,South,190,16.1,16.1,75,0.00,SCT,,0.00,WeatherDisplay:10.37,2014-01-07 15:17:00,
2014-01-07 16:22:00,53.8,45.7,29.91,South,190,16.1,16.1,74,0.00,SCT,,0.00,WeatherDisplay:10.37,2014-01-07 15:22:00,
2014-01-07 16:27:00,53.6,45.5,29.91,South,190,16.1,16.1,74,0.00,SCT,,0.00,WeatherDisplay:10.37,2014-01-07 15:27:00,
2014-01-07 16:32:00,53.6,45.5,29.91,South,190,16.1,16.1,74,0.00,SCT,,0.00,WeatherDisplay:10.37,2014-01-07 15:32:00,
2014-01-07 16:37:00,53.6,45.5,29.91,South,190,16.1,16.1,74,0.00,SCT,,0.00,WeatherDisplay:10.37,2014-01-07 15:37:00,
2014-01-07 16:42:00,53.6,45.5,29.91,SSW,200,16.1,16.1,74,0.00,BKN,,0.00,WeatherDisplay:10.37,2014-01-07 15:42:00,
2014-01-07 16:47:00,53.6,45.5,29.91,SSW,200,9.2,9.2,74,0.00,BKN,,0.00,WeatherDisplay:10.37,2014-01-07 15:47:00,
2014-01-07 16:52:00,53.6,45.5,29.91,SSW,200,9.2,9.2,74,0.00,BKN,,0.00,WeatherDisplay:10.37,2014-01-07 15:52:00,
2014-01-07 16:57:00,53.6,45.5,29.91,SSW,200,9.2,9.2,74,0.00,BKN,,0.00,WeatherDisplay:10.37,2014-01-07 15:57:00,
2014-01-07 17:02:00,53.8,45.7,29.91,SSW,200,9.2,9.2,74,0.00,BKN,,0.00,WeatherDisplay:10.37,2014-01-07 16:02:00,
2014-01-07 17:07:00,53.6,45.5,29.91,SSW,200,9.2,9.2,74,0.00,BKN,,0.00,WeatherDisplay:10.37,2014-01-07 16:07:00,
2014-01-07 17:12:00,53.6,45.5,29.91,SSW,200,10.4,10.4,74,0.00,OVC,,0.00,WeatherDisplay:10.37,2014-01-07 16:12:00,
2014-01-07 17:17:00,53.6,45.9,29.91,SSW,200,10.4,10.4,75,0.00,OVC,,0.00,WeatherDisplay:10.37,2014-01-07 16:17:00,
2014-01-07 17:22:00,53.6,45.9,29.91,SSW,200,10.4,10.4,75,0.00,OVC,,0.00,WeatherDisplay:10.37,2014-01-07 16:22:00,
2014-01-07 17:27:00,53.4,45.7,29.91,SSW,200,10.4,10.4,75,0.00,OVC,,0.00,WeatherDisplay:10.37,2014-01-07 16:27:00,
2014-01-07 17:32:00,53.4,46.0,29.91,SSW,200,10.4,10.4,76,0.00,OVC,,0.00,WeatherDisplay:10.37,2014-01-07 16:32:00,
2014-01-07 17:37:00,53.6,45.9,29.91,SSW,200,10.4,10.4,75,0.00,OVC,,0.00,WeatherDisplay:10.37,2014-01-07 16:37:00,
2014-01-07 17:42:00,53.4,46.0,29.91,SW,220,10.4,10.4,76,0.00,OVC,,0.00,WeatherDisplay:10.37,2014-01-07 16:42:00,
2014-01-07 17:47:00,53.4,46.0,29.91,SW,220,10.4,10.4,76,0.00,OVC,,0.00,WeatherDisplay:10.37,2014-01-07 16:47:00,
2014-01-07 17:52:00,53.6,46.2,29.91,SW,220,10.4,10.4,76,0.00,OVC,,0.00,WeatherDisplay:10.37,2014-01-07 16:52:00,
2014-01-07 17:57:00,53.4,46.0,29.91,SW,220,10.4,10.4,76,0.00,OVC,,0.00,WeatherDisplay:10.37,2014-01-07 16:57:00,
2014-01-07 18:02:00,53.4,46.0,29.91,SW,220,10.4,10.4,76,0.00,OVC,,0.00,WeatherDisplay:10.37,2014-01-07 17:02:00,
2014-01-07 18:07:00,53.6,45.9,29.94,SW,220,10.4,10.4,75,0.00,OVC,,0.00,WeatherDisplay:10.37,2014-01-07 17:07:00,
2014-01-07 18:12:00,53.4,45.7,29.94,SW,220,10.4,10.4,75,0.00,OVC,,0.00,WeatherDisplay:10.37,2014-01-07 17:12:00,
2014-01-07 18:17:00,53.4,45.7,29.94,SW,220,10.4,10.4,75,0.00,OVC,,0.00,WeatherDisplay:10.37,2014-01-07 17:17:00,
2014-01-07 18:22:00,53.4,46.0,29.94,SW,220,10.4,10.4,76,0.00,OVC,,0.00,WeatherDisplay:10.37,2014-01-07 17:22:00,
2014-01-07 18:27:00,53.2,45.9,29.94,SW,220,10.4,10.4,76,0.00,OVC,,0.00,WeatherDisplay:10.37,2014-01-07 17:27:00,
2014-01-07 18:32:00,53.2,45.9,29.94,SW,220,10.4,10.4,76,0.00,OVC,,0.00,WeatherDisplay:10.37,2014-01-07 17:32:00,
2014-01-07 18:37:00,53.2,45.9,29.94,SW,220,10.4,10.4,76,0.00,OVC,,0.00,WeatherDisplay:10.37,2014-01-07 17:37:00,
2014-01-07 18:42:00,53.1,45.7,29.94,SW,220,11.5,11.5,76,0.00,OVC,,0.00,WeatherDisplay:10.37,2014-01-07 17:42:00,
2014-01-07 18:47:00,53.1,45.7,29.94,SW,220,11.5,11.5,76,0.00,OVC,,0.00,WeatherDisplay:10.37,2014-01-07 17:47:00,
2014-01-07 18:52:00,53.1,45.7,29.94,SW,220,11.5,11.5,76,0.00,OVC,,0.00,WeatherDisplay:10.37,2014-01-07 17:52:00,
2014-01-07 18:57:00,53.1,45.7,29.94,SW,220,11.5,11.5,76,0.00,OVC,,0.00,WeatherDisplay:10.37,2014-01-07 17:57:00,
2014-01-07 19:02:00,53.1,46.0,29.94,SW,220,11.5,11.5,77,0.00,OVC,,0.00,WeatherDisplay:10.37,2014-01-07 18:02:00,
2014-01-07 19:07:00,53.1,46.0,29.94,SW,220,11.5,11.5,77,0.00,OVC,,0.00,WeatherDisplay:10.37,2014-01-07 18:07:00,
2014-01-07 19:12:00,53.1,46.0,29.94,SW,220,11.5,11.5,77,0.00,BKN,,0.00,WeatherDisplay:10.37,2014-01-07 18:12:00,
2014-01-07 19:17:00,53.1,46.0,29.94,SW,220,9.2,9.2,77,0.00,BKN,,0.00,WeatherDisplay:10.37,2014-01-07 18:17:00,
2014-01-07 19:23:00,53.1,46.0,29.94,SW,220,9.2,9.2,77,0.00,BKN,,0.00,WeatherDisplay:10.37,2014-01-07 18:23:00,
2014-01-07 19:27:00,53.1,46.4,29.94,SW,220,9.2,9.2,78,0.00,BKN,,0.00,WeatherDisplay:10.37,2014-01-07 18:27:00,
2014-01-07 19:33:00,53.1,46.4,29.94,SW,220,9.2,9.2,78,0.00,BKN,,0.00,WeatherDisplay:10.37,2014-01-07 18:33:00,
2014-01-07 19:38:00,53.1,46.4,29.94,SW,220,9.2,9.2,78,0.00,BKN,,0.00,WeatherDisplay:10.37,2014-01-07 18:38:00,
2014-01-07 19:43:00,53.1,46.4,29.94,SSW,210,9.2,9.2,78,0.00,BKN,,0.00,WeatherDisplay:10.37,2014-01-07 18:43:00,
2014-01-07 19:48:00,53.1,46.4,29.94,SSW,210,9.2,9.2,78,0.00,BKN,,0.00,WeatherDisplay:10.37,2014-01-07 18:48:00,
2014-01-07 19:53:00,53.1,46.4,29.94,SSW,210,9.2,9.2,78,0.00,BKN,,0.00,WeatherDisplay:10.37,2014-01-07 18:53:00,
2014-01-07 19:58:00,53.1,46.7,29.94,SSW,210,9.2,9.2,79,0.00,BKN,,0.00,WeatherDisplay:10.37,2014-01-07 18:58:00,
2014-01-07 20:03:00,53.1,46.7,29.94,SSW,210,9.2,9.2,79,0.00,BKN,,0.00,WeatherDisplay:10.37,2014-01-07 19:03:00,
2014-01-07 20:08:00,53.1,46.7,29.94,SSW,210,9.2,9.2,79,0.00,BKN,,0.00,WeatherDisplay:10.37,2014-01-07 19:08:00,
2014-01-07 20:13:00,53.1,47.1,29.94,SSW,210,11.5,11.5,80,0.00,CLR,,0.00,WeatherDisplay:10.37,2014-01-07 19:13:00,
2014-01-07 20:18:00,53.1,47.1,29.94,SSW,210,11.5,11.5,80,0.00,CLR,,0.00,WeatherDisplay:10.37,2014-01-07 19:18:00,
2014-01-07 20:23:00,53.1,47.1,29.94,SSW,210,11.5,11.5,80,0.00,CLR,,0.00,WeatherDisplay:10.37,2014-01-07 19:23:00,
2014-01-07 20:28:00,53.1,47.1,29.94,SSW,210,11.5,11.5,80,0.00,CLR,,0.00,WeatherDisplay:10.37,2014-01-07 19:28:00,
2014-01-07 20:33:00,53.1,47.1,29.94,SSW,210,11.5,11.5,80,0.00,CLR,,0.00,WeatherDisplay:10.37,2014-01-07 19:33:00,
2014-01-07 20:38:00,53.1,47.1,29.94,SSW,210,11.5,11.5,80,0.00,CLR,,0.00,WeatherDisplay:10.37,2014-01-07 19:38:00,
2014-01-07 20:43:00,53.1,47.1,29.94,SSW,210,12.7,12.7,80,0.00,OVC,,0.00,WeatherDisplay:10.37,2014-01-07 19:43:00,
2014-01-07 20:48:00,53.1,47.4,29.94,SSW,210,12.7,12.7,81,0.00,OVC,,0.00,WeatherDisplay:10.37,2014-01-07 19:48:00,
2014-01-07 20:53:00,53.1,47.1,29.94,SSW,210,12.7,12.7,80,0.00,OVC,,0.00,WeatherDisplay:10.37,2014-01-07 19:53:00,
2014-01-07 20:58:00,52.9,47.2,29.94,SSW,210,12.7,12.7,81,0.00,OVC,,0.00,WeatherDisplay:10.37,2014-01-07 19:58:00,
2014-01-07 21:03:00,52.9,47.2,29.94,SSW,210,12.7,12.7,81,0.00,OVC,,0.00,WeatherDisplay:10.37,2014-01-07 20:03:00,
2014-01-07 21:08:00,52.9,47.2,29.94,SSW,210,12.7,12.7,81,0.00,OVC,,0.00,WeatherDisplay:10.37,2014-01-07 20:08:00,
2014-01-07 21:13:00,52.9,47.2,29.94,SSW,210,12.7,12.7,81,0.00,BKN,,0.00,WeatherDisplay:10.37,2014-01-07 20:13:00,
2014-01-07 21:18:00,52.7,47.0,29.94,SSW,210,12.7,12.7,81,0.00,BKN,,0.00,WeatherDisplay:10.37,2014-01-07 20:18:00,
2014-01-07 21:23:00,52.7,47.0,29.94,SSW,210,12.7,12.7,81,0.00,BKN,,0.00,WeatherDisplay:10.37,2014-01-07 20:23:00,
2014-01-07 21:28:00,52.7,47.4,29.94,SSW,210,12.7,12.7,82,0.00,BKN,,0.00,WeatherDisplay:10.37,2014-01-07 20:28:00,
2014-01-07 21:33:00,52.7,47.4,29.94,SSW,210,12.7,12.7,82,0.00,BKN,,0.00,WeatherDisplay:10.37,2014-01-07 20:33:00,
2014-01-07 21:38:00,52.7,47.4,29.94,SSW,210,12.7,12.7,82,0.00,BKN,,0.00,WeatherDisplay:10.37,2014-01-07 20:38:00,
2014-01-07 21:43:00,52.7,47.4,29.94,SSW,210,12.7,12.7,82,0.00,CLR,,0.00,WeatherDisplay:10.37,2014-01-07 20:43:00,
2014-01-07 21:48:00,52.5,47.2,29.94,SSW,210,11.5,11.5,82,0.00,CLR,,0.00,WeatherDisplay:10.37,2014-01-07 20:48:00,
2014-01-07 21:53:00,52.7,47.4,29.97,SSW,210,11.5,11.5,82,0.00,CLR,,0.00,WeatherDisplay:10.37,2014-01-07 20:53:00,
2014-01-07 21:58:00,52.7,47.4,29.97,SSW,210,11.5,11.5,82,0.00,CLR,,0.00,WeatherDisplay:10.37,2014-01-07 20:58:00,
2014-01-07 22:03:00,52.7,47.4,29.97,SSW,210,11.5,11.5,82,0.00,CLR,,0.00,WeatherDisplay:10.37,2014-01-07 21:03:00,
2014-01-07 22:08:00,52.7,47.4,29.94,SSW,210,11.5,11.5,82,0.00,CLR,,0.00,WeatherDisplay:10.37,2014-01-07 21:08:00,
2014-01-07 22:13:00,52.7,47.4,29.94,SSW,210,11.5,11.5,82,0.00,CLR,,0.00,WeatherDisplay:10.37,2014-01-07 21:13:00,
2014-01-07 22:18:00,52.7,47.4,29.94,SSW,210,11.5,11.5,82,0.00,CLR,,0.00,WeatherDisplay:10.37,2014-01-07 21:18:00,
2014-01-07 22:23:00,52.7,47.4,29.94,SSW,210,11.5,11.5,82,0.00,CLR,,0.00,WeatherDisplay:10.37,2014-01-07 21:23:00,
2014-01-07 22:28:00,52.7,47.4,29.94,SSW,210,11.5,11.5,82,0.00,CLR,,0.00,WeatherDisplay:10.37,2014-01-07 21:28:00,
2014-01-07 22:33:00,52.7,47.4,29.94,SSW,210,11.5,11.5,82,0.00,CLR,,0.00,WeatherDisplay:10.37,2014-01-07 21:33:00,
2014-01-07 22:38:00,52.7,47.4,29.97,SSW,210,11.5,11.5,82,0.00,CLR,,0.00,WeatherDisplay:10.37,2014-01-07 21:38:00,
2014-01-07 22:43:00,52.7,47.4,29.97,SSW,210,12.7,12.7,82,0.00,CLR,,0.00,WeatherDisplay:10.37,2014-01-07 21:43:00,
2014-01-07 22:48:00,52.9,47.5,29.97,SSW,210,12.7,12.7,82,0.00,CLR,,0.00,WeatherDisplay:10.37,2014-01-07 21:48:00,
2014-01-07 22:53:00,52.9,47.5,29.97,SSW,210,12.7,12.7,82,0.00,CLR,,0.00,WeatherDisplay:10.37,2014-01-07 21:53:00,
2014-01-07 22:58:00,52.9,47.5,29.97,SSW,210,12.7,12.7,82,0.00,CLR,,0.00,WeatherDisplay:10.37,2014-01-07 21:58:00,
2014-01-07 23:03:00,52.9,47.9,29.97,SSW,210,12.7,12.7,83,0.00,CLR,,0.00,WeatherDisplay:10.37,2014-01-07 22:03:00,
2014-01-07 23:08:00,52.9,47.9,29.97,SSW,210,12.7,12.7,83,0.00,CLR,,0.00,WeatherDisplay:10.37,2014-01-07 22:08:00,
2014-01-07 23:13:00,53.1,48.0,29.97,SSW,210,12.7,12.7,83,0.00,BKN,,0.00,WeatherDisplay:10.37,2014-01-07 22:13:00,
2014-01-07 23:18:00,53.1,48.0,29.97,SSW,210,11.5,11.5,83,0.00,BKN,,0.00,WeatherDisplay:10.37,2014-01-07 22:18:00,
2014-01-07 23:23:00,53.1,48.0,29.97,SSW,210,11.5,11.5,83,0.00,BKN,,0.00,WeatherDisplay:10.37,2014-01-07 22:23:00,
2014-01-07 23:28:00,53.1,47.7,29.97,SSW,210,11.5,11.5,82,0.00,BKN,,0.00,WeatherDisplay:10.37,2014-01-07 22:28:00,
2014-01-07 23:33:00,53.1,47.7,29.97,SSW,210,11.5,11.5,82,0.00,BKN,,0.00,WeatherDisplay:10.37,2014-01-07 22:33:00,
2014-01-07 23:38:00,53.1,47.7,29.97,SSW,210,11.5,11.5,82,0.00,BKN,,0.00,WeatherDisplay:10.37,2014-01-07 22:38:00,
2014-01-07 23:43:00,53.1,47.7,29.97,SSW,210,9.2,9.2,82,0.00,CLR,,0.00,WeatherDisplay:10.37,2014-01-07 22:43:00,
2014-01-07 23:48:00,53.1,47.4,29.97,SSW,210,9.2,9.2,81,0.00,CLR,,0.00,WeatherDisplay:10.37,2014-01-07 22:48:00,
2014-01-07 23:53:00,52.9,47.2,29.94,SSW,210,9.2,9.2,81,0.00,CLR,,0.00,WeatherDisplay:10.37,2014-01-07 22:53:00,
2014-01-07 23:58:00,52.9,47.2,29.94,SSW,210,9.2,9.2,81,0.00,CLR,,0.00,WeatherDisplay:10.37,2014-01-07 22:58:00,